sensor_id;sensor_type;location;lat;lon;timestamp;pressure;altitude;pressure_sealevel;temperature;humidity
49044;BME280;34860;48.066;14.124;2023-03-26T00:01:34;96117.19;;;10.19;53.90
49044;BME280;34860;48.066;14.124;2023-03-26T00:04:23;96120.31;;;10.21;53.82
49044;BME280;34860;48.066;14.124;2023-03-26T00:07:14;96109.97;;;10.22;53.88
49044;BME280;34860;48.066;14.124;2023-03-26T00:10:03;96102.84;;;10.21;53.88
49044;BME280;34860;48.066;14.124;2023-03-26T00:12:52;96111.97;;;10.21;53.79
49044;BME280;34860;48.066;14.124;2023-03-26T00:15:41;96115.84;;;10.24;53.96
49044;BME280;34860;48.066;14.124;2023-03-26T00:18:30;96105.50;;;10.24;53.77
49044;BME280;34860;48.066;14.124;2023-03-26T00:21:23;96114.19;;;10.26;53.73
49044;BME280;34860;48.066;14.124;2023-03-26T00:24:16;96116.16;;;10.26;53.71
49044;BME280;34860;48.066;14.124;2023-03-26T00:27:05;96114.19;;;10.26;53.74
49044;BME280;34860;48.066;14.124;2023-03-26T00:29:54;96113.38;;;10.26;53.75
49044;BME280;34860;48.066;14.124;2023-03-26T00:32:46;96108.94;;;10.28;53.65
49044;BME280;34860;48.066;14.124;2023-03-26T00:35:35;96111.59;;;10.32;53.70
49044;BME280;34860;48.066;14.124;2023-03-26T00:38:26;96107.94;;;10.35;53.68
49044;BME280;34860;48.066;14.124;2023-03-26T00:41:19;96099.97;;;10.37;53.56
49044;BME280;34860;48.066;14.124;2023-03-26T00:44:11;96101.94;;;10.36;53.68
49044;BME280;34860;48.066;14.124;2023-03-26T00:47:01;96097.50;;;10.39;53.48
49044;BME280;34860;48.066;14.124;2023-03-26T00:49:51;96113.59;;;10.44;53.65
49044;BME280;34860;48.066;14.124;2023-03-26T00:52:40;96106.38;;;10.47;53.42
49044;BME280;34860;48.066;14.124;2023-03-26T00:55:29;96103.16;;;10.48;53.34
49044;BME280;34860;48.066;14.124;2023-03-26T00:58:20;96097.13;;;10.50;53.58
49044;BME280;34860;48.066;14.124;2023-03-26T01:01:10;96094.69;;;10.52;53.43
49044;BME280;34860;48.066;14.124;2023-03-26T01:04:19;96084.31;;;10.52;53.51
49044;BME280;34860;48.066;14.124;2023-03-26T01:07:16;96088.97;;;10.56;53.38
49044;BME280;34860;48.066;14.124;2023-03-26T01:10:08;96085.13;;;10.53;53.44
49044;BME280;34860;48.066;14.124;2023-03-26T01:13:00;96083.88;;;10.54;53.42
49044;BME280;34860;48.066;14.124;2023-03-26T01:15:50;96078.78;;;10.52;53.52
49044;BME280;34860;48.066;14.124;2023-03-26T01:18:42;96076.78;;;10.53;53.52
49044;BME280;34860;48.066;14.124;2023-03-26T01:21:31;96076.78;;;10.53;53.56
49044;BME280;34860;48.066;14.124;2023-03-26T01:24:22;96067.66;;;10.52;53.50
49044;BME280;34860;48.066;14.124;2023-03-26T01:27:19;96067.66;;;10.52;53.43
49044;BME280;34860;48.066;14.124;2023-03-26T01:30:16;96073.22;;;10.52;53.53
49044;BME280;34860;48.066;14.124;2023-03-26T01:33:14;96066.44;;;10.53;53.46
49044;BME280;34860;48.066;14.124;2023-03-26T01:36:10;96051.78;;;10.53;53.44
49044;BME280;34860;48.066;14.124;2023-03-26T01:39:08;96056.88;;;10.54;53.38
49044;BME280;34860;48.066;14.124;2023-03-26T01:42:10;96061.19;;;10.56;53.49
49044;BME280;34860;48.066;14.124;2023-03-26T01:45:06;96055.31;;;10.53;53.48
49044;BME280;34860;48.066;14.124;2023-03-26T01:47:59;96068.47;;;10.53;53.46
49044;BME280;34860;48.066;14.124;2023-03-26T01:50:48;96065.34;;;10.51;53.54
49044;BME280;34860;48.066;14.124;2023-03-26T01:53:42;96061.78;;;10.50;53.57
49044;BME280;34860;48.066;14.124;2023-03-26T01:56:36;96066.13;;;10.51;53.52
49044;BME280;34860;48.066;14.124;2023-03-26T01:59:45;96053.78;;;10.52;53.44
49044;BME280;34860;48.066;14.124;2023-03-26T02:02:50;96049.00;;;10.53;53.75
49044;BME280;34860;48.066;14.124;2023-03-26T02:05:49;96039.56;;;10.50;53.67
49044;BME280;34860;48.066;14.124;2023-03-26T02:08:41;96040.00;;;10.49;53.48
49044;BME280;34860;48.066;14.124;2023-03-26T02:11:34;96050.34;;;10.48;53.29
49044;BME280;34860;48.066;14.124;2023-03-26T02:14:28;96039.34;;;10.45;53.49
49044;BME280;34860;48.066;14.124;2023-03-26T02:17:18;96049.38;;;10.42;53.52
49044;BME280;34860;48.066;14.124;2023-03-26T02:20:12;96051.81;;;10.40;53.59
49044;BME280;34860;48.066;14.124;2023-03-26T02:23:06;96049.97;;;10.37;53.57
49044;BME280;34860;48.066;14.124;2023-03-26T02:25:55;96050.72;;;10.38;53.61
49044;BME280;34860;48.066;14.124;2023-03-26T02:28:44;96048.72;;;10.38;53.51
49044;BME280;34860;48.066;14.124;2023-03-26T02:31:33;96055.38;;;10.41;53.46
49044;BME280;34860;48.066;14.124;2023-03-26T02:34:24;96043.81;;;10.42;53.52
49044;BME280;34860;48.066;14.124;2023-03-26T02:37:13;96047.06;;;10.41;53.41
49044;BME280;34860;48.066;14.124;2023-03-26T02:40:08;96047.81;;;10.41;53.57
49044;BME280;34860;48.066;14.124;2023-03-26T02:43:01;96049.50;;;10.39;53.47
49044;BME280;34860;48.066;14.124;2023-03-26T02:45:53;96037.16;;;10.40;53.46
49044;BME280;34860;48.066;14.124;2023-03-26T02:49:01;96043.16;;;10.38;53.76
49044;BME280;34860;48.066;14.124;2023-03-26T02:51:54;96047.19;;;10.37;53.41
49044;BME280;34860;48.066;14.124;2023-03-26T02:54:46;96040.53;;;10.34;53.45
49044;BME280;34860;48.066;14.124;2023-03-26T02:57:38;96032.63;;;10.33;53.53
49044;BME280;34860;48.066;14.124;2023-03-26T03:00:44;96033.50;;;10.30;53.50
49044;BME280;34860;48.066;14.124;2023-03-26T03:03:51;96014.66;;;10.25;53.60
49044;BME280;34860;48.066;14.124;2023-03-26T03:06:54;96015.56;;;10.22;53.51
49044;BME280;34860;48.066;14.124;2023-03-26T03:09:44;96014.31;;;10.23;53.76
49044;BME280;34860;48.066;14.124;2023-03-26T03:13:07;96025.41;;;10.23;53.56
49044;BME280;34860;48.066;14.124;2023-03-26T03:15:56;96029.44;;;10.22;53.50
49044;BME280;34860;48.066;14.124;2023-03-26T03:18:47;96022.78;;;10.19;53.48
49044;BME280;34860;48.066;14.124;2023-03-26T03:21:44;96030.47;;;10.15;53.67
49044;BME280;34860;48.066;14.124;2023-03-26T03:24:35;96026.56;;;10.12;53.59
49044;BME280;34860;48.066;14.124;2023-03-26T03:27:24;96021.28;;;10.05;53.69
49044;BME280;34860;48.066;14.124;2023-03-26T03:30:24;96022.63;;;10.00;53.74
49044;BME280;34860;48.066;14.124;2023-03-26T03:33:30;96017.19;;;9.97;53.72
49044;BME280;34860;48.066;14.124;2023-03-26T03:36:21;96022.41;;;9.95;53.79
49044;BME280;34860;48.066;14.124;2023-03-26T03:39:19;96014.53;;;9.93;53.72
49044;BME280;34860;48.066;14.124;2023-03-26T03:42:11;96013.69;;;9.84;53.90
49044;BME280;34860;48.066;14.124;2023-03-26T03:45:00;96010.59;;;9.81;53.88
49044;BME280;34860;48.066;14.124;2023-03-26T03:48:11;96013.00;;;9.79;53.82
49044;BME280;34860;48.066;14.124;2023-03-26T03:51:04;96021.00;;;9.77;53.91
49044;BME280;34860;48.066;14.124;2023-03-26T03:54:05;96010.34;;;9.76;53.82
49044;BME280;34860;48.066;14.124;2023-03-26T03:57:22;96011.94;;;9.77;53.81
49044;BME280;34860;48.066;14.124;2023-03-26T04:00:18;96017.47;;;9.77;53.85
49044;BME280;34860;48.066;14.124;2023-03-26T04:03:21;96006.94;;;9.72;53.84
49044;BME280;34860;48.066;14.124;2023-03-26T04:06:11;96004.16;;;9.72;53.75
49044;BME280;34860;48.066;14.124;2023-03-26T04:09:01;95992.63;;;9.73;53.83
49044;BME280;34860;48.066;14.124;2023-03-26T04:11:50;95994.28;;;9.71;53.78
49044;BME280;34860;48.066;14.124;2023-03-26T04:14:56;95997.94;;;9.68;53.87
49044;BME280;34860;48.066;14.124;2023-03-26T04:17:45;96006.41;;;9.64;53.77
49044;BME280;34860;48.066;14.124;2023-03-26T04:20:35;96006.50;;;9.60;53.88
49044;BME280;34860;48.066;14.124;2023-03-26T04:23:28;96001.88;;;9.57;53.79
49044;BME280;34860;48.066;14.124;2023-03-26T04:26:25;95997.09;;;9.58;53.86
49044;BME280;34860;48.066;14.124;2023-03-26T04:29:38;95995.97;;;9.55;53.81
49044;BME280;34860;48.066;14.124;2023-03-26T04:32:39;95980.22;;;9.52;54.04
49044;BME280;34860;48.066;14.124;2023-03-26T04:35:30;95992.13;;;9.53;53.97
49044;BME280;34860;48.066;14.124;2023-03-26T04:38:22;95982.56;;;9.54;53.81
49044;BME280;34860;48.066;14.124;2023-03-26T04:41:12;95980.66;;;9.51;53.80
49044;BME280;34860;48.066;14.124;2023-03-26T04:44:19;95983.44;;;9.51;53.83
49044;BME280;34860;48.066;14.124;2023-03-26T04:47:20;95976.38;;;9.50;53.92
49044;BME280;34860;48.066;14.124;2023-03-26T04:50:11;95981.47;;;9.51;53.90
49044;BME280;34860;48.066;14.124;2023-03-26T04:53:00;95977.13;;;9.50;53.98
49044;BME280;34860;48.066;14.124;2023-03-26T04:56:12;95972.03;;;9.49;53.96
49044;BME280;34860;48.066;14.124;2023-03-26T04:59:31;95962.03;;;9.51;53.82
49044;BME280;34860;48.066;14.124;2023-03-26T05:02:26;95967.59;;;9.51;53.82
49044;BME280;34860;48.066;14.124;2023-03-26T05:05:17;95957.72;;;9.50;53.88
49044;BME280;34860;48.066;14.124;2023-03-26T05:08:09;95974.34;;;9.50;53.94
49044;BME280;34860;48.066;14.124;2023-03-26T05:10:58;95962.81;;;9.52;53.74
49044;BME280;34860;48.066;14.124;2023-03-26T05:13:52;95959.59;;;9.53;53.71
49044;BME280;34860;48.066;14.124;2023-03-26T05:16:41;95959.59;;;9.53;53.69
49044;BME280;34860;48.066;14.124;2023-03-26T05:19:31;95961.91;;;9.55;53.72
49044;BME280;34860;48.066;14.124;2023-03-26T05:22:25;95967.03;;;9.56;53.81
49044;BME280;34860;48.066;14.124;2023-03-26T05:25:34;95965.69;;;9.61;53.82
49044;BME280;34860;48.066;14.124;2023-03-26T05:28:32;95961.66;;;9.62;53.73
49044;BME280;34860;48.066;14.124;2023-03-26T05:31:29;95962.78;;;9.64;53.64
49044;BME280;34860;48.066;14.124;2023-03-26T05:34:20;95964.66;;;9.68;53.55
49044;BME280;34860;48.066;14.124;2023-03-26T05:37:12;95965.19;;;9.75;53.64
49044;BME280;34860;48.066;14.124;2023-03-26T05:40:17;95954.72;;;9.79;53.54
49044;BME280;34860;48.066;14.124;2023-03-26T05:43:12;95962.06;;;9.86;53.44
49044;BME280;34860;48.066;14.124;2023-03-26T05:46:17;95964.25;;;9.91;53.41
49044;BME280;34860;48.066;14.124;2023-03-26T05:49:08;95958.13;;;9.96;53.44
49044;BME280;34860;48.066;14.124;2023-03-26T05:51:56;95963.88;;;10.02;53.26
49044;BME280;34860;48.066;14.124;2023-03-26T05:54:55;95969.94;;;10.10;53.31
49044;BME280;34860;48.066;14.124;2023-03-26T05:58:04;95965.50;;;10.12;53.30
49044;BME280;34860;48.066;14.124;2023-03-26T06:01:12;95964.91;;;10.17;53.25
49044;BME280;34860;48.066;14.124;2023-03-26T06:04:34;95966.34;;;10.22;53.26
49044;BME280;34860;48.066;14.124;2023-03-26T06:07:47;95965.75;;;10.27;53.21
49044;BME280;34860;48.066;14.124;2023-03-26T06:10:38;95967.63;;;10.30;53.18
49044;BME280;34860;48.066;14.124;2023-03-26T06:13:29;95970.78;;;10.32;53.28
49044;BME280;34860;48.066;14.124;2023-03-26T06:16:18;95967.84;;;10.36;53.26
49044;BME280;34860;48.066;14.124;2023-03-26T06:19:14;95962.94;;;10.40;53.38
49044;BME280;34860;48.066;14.124;2023-03-26T06:22:15;95963.91;;;10.46;52.97
49044;BME280;34860;48.066;14.124;2023-03-26T06:25:26;95958.53;;;10.52;52.97
49044;BME280;34860;48.066;14.124;2023-03-26T06:28:25;95957.50;;;10.59;53.15
49044;BME280;34860;48.066;14.124;2023-03-26T06:31:40;95960.03;;;10.66;53.19
49044;BME280;34860;48.066;14.124;2023-03-26T06:34:36;95961.41;;;10.70;53.12
49044;BME280;34860;48.066;14.124;2023-03-26T06:37:25;95952.94;;;10.74;53.20
49044;BME280;34860;48.066;14.124;2023-03-26T06:40:19;95960.69;;;10.79;53.17
49044;BME280;34860;48.066;14.124;2023-03-26T06:43:35;95957.97;;;10.88;53.05
49044;BME280;34860;48.066;14.124;2023-03-26T06:46:45;95947.00;;;10.94;53.11
49044;BME280;34860;48.066;14.124;2023-03-26T06:50:11;95941.19;;;11.01;53.02
49044;BME280;34860;48.066;14.124;2023-03-26T06:53:20;95939.19;;;11.11;53.05
49044;BME280;34860;48.066;14.124;2023-03-26T06:56:15;95942.78;;;11.21;52.91
49044;BME280;34860;48.066;14.124;2023-03-26T06:59:27;95936.00;;;11.31;52.80
49044;BME280;34860;48.066;14.124;2023-03-26T07:02:36;95929.69;;;11.40;52.91
49044;BME280;34860;48.066;14.124;2023-03-26T07:05:43;95930.03;;;11.51;52.61
49044;BME280;34860;48.066;14.124;2023-03-26T07:08:54;95930.03;;;11.60;52.71
49044;BME280;34860;48.066;14.124;2023-03-26T07:12:02;95930.34;;;11.72;52.73
49044;BME280;34860;48.066;14.124;2023-03-26T07:15:27;95928.81;;;11.80;52.81
49044;BME280;34860;48.066;14.124;2023-03-26T07:18:53;95925.72;;;11.87;52.62
49044;BME280;34860;48.066;14.124;2023-03-26T07:21:47;95915.19;;;11.91;52.57
49044;BME280;34860;48.066;14.124;2023-03-26T07:24:58;95917.09;;;11.94;52.66
49044;BME280;34860;48.066;14.124;2023-03-26T07:28:22;95911.53;;;11.94;52.83
49044;BME280;34860;48.066;14.124;2023-03-26T07:31:57;95897.13;;;11.96;52.81
49044;BME280;34860;48.066;14.124;2023-03-26T07:35:12;95887.38;;;12.01;52.85
49044;BME280;34860;48.066;14.124;2023-03-26T07:38:29;95884.75;;;12.06;52.76
49044;BME280;34860;48.066;14.124;2023-03-26T07:41:47;95874.22;;;12.10;52.76
49044;BME280;34860;48.066;14.124;2023-03-26T07:44:59;95868.81;;;12.16;52.71
49044;BME280;34860;48.066;14.124;2023-03-26T07:48:02;95871.25;;;12.23;52.75
49044;BME280;34860;48.066;14.124;2023-03-26T07:51:25;95861.78;;;12.30;52.67
49044;BME280;34860;48.066;14.124;2023-03-26T07:54:39;95857.44;;;12.38;52.75
49044;BME280;34860;48.066;14.124;2023-03-26T07:57:55;95849.38;;;12.49;52.67
49044;BME280;34860;48.066;14.124;2023-03-26T08:01:19;95842.31;;;12.63;52.57
49044;BME280;34860;48.066;14.124;2023-03-26T08:04:38;95844.91;;;12.76;52.53
49044;BME280;34860;48.066;14.124;2023-03-26T08:08:11;95835.09;;;12.90;52.38
49044;BME280;34860;48.066;14.124;2023-03-26T08:11:27;95834.56;;;13.01;52.34
49044;BME280;34860;48.066;14.124;2023-03-26T08:14:29;95817.16;;;13.06;52.37
49044;BME280;34860;48.066;14.124;2023-03-26T08:17:26;95807.38;;;13.11;52.15
49044;BME280;34860;48.066;14.124;2023-03-26T08:20:28;95800.19;;;13.19;52.25
49044;BME280;34860;48.066;14.124;2023-03-26T08:23:26;95801.38;;;13.27;52.56
49044;BME280;34860;48.066;14.124;2023-03-26T08:26:27;95800.09;;;13.37;52.37
49044;BME280;34860;48.066;14.124;2023-03-26T08:29:24;95800.78;;;13.47;52.24
49044;BME280;34860;48.066;14.124;2023-03-26T08:32:19;95787.25;;;13.55;52.21
49044;BME280;34860;48.066;14.124;2023-03-26T08:35:11;95786.66;;;13.66;52.30
49044;BME280;34860;48.066;14.124;2023-03-26T08:38:00;95770.78;;;13.72;52.27
49044;BME280;34860;48.066;14.124;2023-03-26T08:41:21;95760.28;;;13.81;52.04
49044;BME280;34860;48.066;14.124;2023-03-26T08:44:42;95755.69;;;13.93;52.10
49044;BME280;34860;48.066;14.124;2023-03-26T08:47:59;95748.72;;;14.04;52.02
49044;BME280;34860;48.066;14.124;2023-03-26T08:51:06;95742.56;;;14.14;51.72
49044;BME280;34860;48.066;14.124;2023-03-26T08:54:22;95743.97;;;14.25;52.10
49044;BME280;34860;48.066;14.124;2023-03-26T08:57:33;95743.13;;;14.33;51.83
49044;BME280;34860;48.066;14.124;2023-03-26T09:00:37;95727.97;;;14.40;51.82
49044;BME280;34860;48.066;14.124;2023-03-26T09:03:53;95723.22;;;14.46;51.96
49044;BME280;34860;48.066;14.124;2023-03-26T09:07:02;95715.19;;;14.54;51.87
49044;BME280;34860;48.066;14.124;2023-03-26T09:10:15;95718.09;;;14.60;51.82
49044;BME280;34860;48.066;14.124;2023-03-26T09:13:38;95703.13;;;14.63;51.83
49044;BME280;34860;48.066;14.124;2023-03-26T09:17:09;95698.41;;;14.69;51.82
49044;BME280;34860;48.066;14.124;2023-03-26T09:20:13;95687.00;;;14.73;51.94
49044;BME280;34860;48.066;14.124;2023-03-26T09:23:27;95674.06;;;14.75;51.89
49044;BME280;34860;48.066;14.124;2023-03-26T09:26:25;95662.13;;;14.75;51.87
49044;BME280;34860;48.066;14.124;2023-03-26T09:29:32;95663.16;;;14.77;51.71
49044;BME280;34860;48.066;14.124;2023-03-26T09:32:45;95650.00;;;14.83;51.93
49044;BME280;34860;48.066;14.124;2023-03-26T09:35:53;95646.50;;;14.88;51.87
49044;BME280;34860;48.066;14.124;2023-03-26T09:38:50;95633.06;;;14.93;51.83
49044;BME280;34860;48.066;14.124;2023-03-26T09:42:01;95611.75;;;14.95;51.79
49044;BME280;34860;48.066;14.124;2023-03-26T09:45:06;95622.47;;;14.97;51.91
49044;BME280;34860;48.066;14.124;2023-03-26T09:48:15;95621.97;;;14.98;51.94
49044;BME280;34860;48.066;14.124;2023-03-26T09:51:19;95614.81;;;14.97;51.83
49044;BME280;34860;48.066;14.124;2023-03-26T09:54:33;95610.47;;;14.96;51.82
49044;BME280;34860;48.066;14.124;2023-03-26T09:57:49;95603.38;;;14.95;51.99
49044;BME280;34860;48.066;14.124;2023-03-26T10:00:48;95600.28;;;14.93;52.04
49044;BME280;34860;48.066;14.124;2023-03-26T10:03:44;95593.16;;;14.92;52.01
49044;BME280;34860;48.066;14.124;2023-03-26T10:06:45;95580.97;;;14.95;52.11
49044;BME280;34860;48.066;14.124;2023-03-26T10:09:47;95578.19;;;14.95;51.90
49044;BME280;34860;48.066;14.124;2023-03-26T10:12:42;95577.69;;;14.97;52.00
49044;BME280;34860;48.066;14.124;2023-03-26T10:15:39;95574.09;;;14.96;51.99
49044;BME280;34860;48.066;14.124;2023-03-26T10:18:42;95560.91;;;14.97;52.03
49044;BME280;34860;48.066;14.124;2023-03-26T10:21:40;95566.28;;;15.00;51.95
49044;BME280;34860;48.066;14.124;2023-03-26T10:24:43;95545.69;;;15.03;51.87
49044;BME280;34860;48.066;14.124;2023-03-26T10:27:41;95545.47;;;15.07;51.66
49044;BME280;34860;48.066;14.124;2023-03-26T10:30:49;95535.53;;;15.06;51.88
49044;BME280;34860;48.066;14.124;2023-03-26T10:33:51;95527.44;;;15.08;51.98
49044;BME280;34860;48.066;14.124;2023-03-26T10:36:47;95519.06;;;15.14;51.77
49044;BME280;34860;48.066;14.124;2023-03-26T10:39:53;95515.06;;;15.20;51.72
49044;BME280;34860;48.066;14.124;2023-03-26T10:43:13;95511.56;;;15.25;51.62
49044;BME280;34860;48.066;14.124;2023-03-26T10:46:14;95499.88;;;15.33;51.54
49044;BME280;34860;48.066;14.124;2023-03-26T10:49:40;95494.28;;;15.33;51.71
49044;BME280;34860;48.066;14.124;2023-03-26T10:52:38;95493.03;;;15.34;51.63
49044;BME280;34860;48.066;14.124;2023-03-26T10:55:33;95481.84;;;15.34;51.78
49044;BME280;34860;48.066;14.124;2023-03-26T10:58:25;95472.44;;;15.37;51.74
49044;BME280;34860;48.066;14.124;2023-03-26T11:01:26;95469.66;;;15.42;51.64
49044;BME280;34860;48.066;14.124;2023-03-26T11:04:30;95469.97;;;15.50;51.36
49044;BME280;34860;48.066;14.124;2023-03-26T11:07:28;95461.88;;;15.58;51.46
49044;BME280;34860;48.066;14.124;2023-03-26T11:10:32;95466.75;;;15.63;51.43
49044;BME280;34860;48.066;14.124;2023-03-26T11:13:35;95477.19;;;15.68;51.35
49044;BME280;34860;48.066;14.124;2023-03-26T11:16:32;95464.25;;;15.71;51.38
49044;BME280;34860;48.066;14.124;2023-03-26T11:19:29;95478.78;;;15.75;51.35
49044;BME280;34860;48.066;14.124;2023-03-26T11:22:28;95486.47;;;15.80;51.39
49044;BME280;34860;48.066;14.124;2023-03-26T11:25:46;95482.94;;;15.85;51.30
49044;BME280;34860;48.066;14.124;2023-03-26T11:28:56;95483.97;;;15.88;51.35
49044;BME280;34860;48.066;14.124;2023-03-26T11:31:57;95489.59;;;15.93;51.14
49044;BME280;34860;48.066;14.124;2023-03-26T11:34:55;95493.19;;;15.94;51.29
49044;BME280;34860;48.066;14.124;2023-03-26T11:37:50;95497.19;;;15.87;51.14
49044;BME280;34860;48.066;14.124;2023-03-26T11:40:42;95503.28;;;15.80;51.21
49044;BME280;34860;48.066;14.124;2023-03-26T11:43:43;95511.94;;;15.76;51.40
49044;BME280;34860;48.066;14.124;2023-03-26T11:46:39;95515.41;;;15.66;51.77
49044;BME280;34860;48.066;14.124;2023-03-26T11:49:31;95524.75;;;15.57;51.68
49044;BME280;34860;48.066;14.124;2023-03-26T11:52:24;95544.81;;;15.50;51.71
49044;BME280;34860;48.066;14.124;2023-03-26T11:55:13;95554.16;;;15.41;51.86
49044;BME280;34860;48.066;14.124;2023-03-26T11:58:02;95556.09;;;15.29;51.90
49044;BME280;34860;48.066;14.124;2023-03-26T12:00:54;95533.84;;;15.14;51.98
49044;BME280;34860;48.066;14.124;2023-03-26T12:03:55;95512.38;;;15.05;51.82
49044;BME280;34860;48.066;14.124;2023-03-26T12:06:53;95532.44;;;14.98;52.02
49044;BME280;34860;48.066;14.124;2023-03-26T12:09:52;95520.63;;;14.88;52.00
49044;BME280;34860;48.066;14.124;2023-03-26T12:12:45;95508.91;;;14.84;52.04
49044;BME280;34860;48.066;14.124;2023-03-26T12:15:41;95500.72;;;14.81;51.93
49044;BME280;34860;48.066;14.124;2023-03-26T12:18:30;95480.59;;;14.77;51.91
49044;BME280;34860;48.066;14.124;2023-03-26T12:21:22;95485.13;;;14.74;51.86
49044;BME280;34860;48.066;14.124;2023-03-26T12:24:25;95474.97;;;14.71;51.73
49044;BME280;34860;48.066;14.124;2023-03-26T12:27:24;95483.06;;;14.69;51.67
49044;BME280;34860;48.066;14.124;2023-03-26T12:30:20;95476.44;;;14.66;51.66
49044;BME280;34860;48.066;14.124;2023-03-26T12:33:14;95470.50;;;14.59;51.81
49044;BME280;34860;48.066;14.124;2023-03-26T12:36:20;95479.88;;;14.56;51.68
49044;BME280;34860;48.066;14.124;2023-03-26T12:39:31;95473.72;;;14.51;51.67
49044;BME280;34860;48.066;14.124;2023-03-26T12:42:27;95475.19;;;14.47;51.62
49044;BME280;34860;48.066;14.124;2023-03-26T12:45:19;95483.56;;;14.47;51.59
49044;BME280;34860;48.066;14.124;2023-03-26T12:48:11;95478.19;;;14.43;51.59
49044;BME280;34860;48.066;14.124;2023-03-26T12:51:09;95470.31;;;14.42;51.73
49044;BME280;34860;48.066;14.124;2023-03-26T12:57:18;95475.63;;;14.40;51.60
49044;BME280;34860;48.066;14.124;2023-03-26T13:00:25;95472.84;;;14.40;51.53
49044;BME280;34860;48.066;14.124;2023-03-26T13:03:27;95474.56;;;14.37;51.43
49044;BME280;34860;48.066;14.124;2023-03-26T13:06:30;95473.81;;;14.37;51.67
49044;BME280;34860;48.066;14.124;2023-03-26T13:09:33;95464.69;;;14.36;51.49
49044;BME280;34860;48.066;14.124;2023-03-26T13:12:34;95465.44;;;14.37;51.34
49044;BME280;34860;48.066;14.124;2023-03-26T13:15:31;95479.69;;;14.39;51.47
49044;BME280;34860;48.066;14.124;2023-03-26T13:18:26;95477.38;;;14.37;51.48
49044;BME280;34860;48.066;14.124;2023-03-26T13:21:27;95479.13;;;14.34;51.42
49044;BME280;34860;48.066;14.124;2023-03-26T13:24:29;95477.09;;;14.35;51.57
49044;BME280;34860;48.066;14.124;2023-03-26T13:27:40;95475.28;;;14.32;51.52
49044;BME280;34860;48.066;14.124;2023-03-26T13:30:41;95450.06;;;14.26;51.47
49044;BME280;34860;48.066;14.124;2023-03-26T13:33:39;95443.94;;;14.22;51.75
49044;BME280;34860;48.066;14.124;2023-03-26T13:36:40;95436.28;;;14.17;51.68
49044;BME280;34860;48.066;14.124;2023-03-26T13:39:38;95442.84;;;14.14;51.80
49044;BME280;34860;48.066;14.124;2023-03-26T13:42:39;95426.00;;;14.08;51.71
49044;BME280;34860;48.066;14.124;2023-03-26T13:45:45;95408.97;;;14.06;51.67
49044;BME280;34860;48.066;14.124;2023-03-26T13:48:42;95410.22;;;14.05;51.78
49044;BME280;34860;48.066;14.124;2023-03-26T13:51:38;95412.31;;;14.10;51.76
49044;BME280;34860;48.066;14.124;2023-03-26T13:54:32;95408.00;;;14.09;51.77
49044;BME280;34860;48.066;14.124;2023-03-26T13:57:28;95396.81;;;14.09;51.70
49044;BME280;34860;48.066;14.124;2023-03-26T14:00:23;95408.00;;;14.09;51.94
49044;BME280;34860;48.066;14.124;2023-03-26T14:03:24;95398.31;;;14.10;52.01
49044;BME280;34860;48.066;14.124;2023-03-26T14:06:29;95391.97;;;14.10;51.83
49044;BME280;34860;48.066;14.124;2023-03-26T14:09:24;95400.09;;;14.08;51.90
49044;BME280;34860;48.066;14.124;2023-03-26T14:12:27;95408.88;;;14.01;51.84
49044;BME280;34860;48.066;14.124;2023-03-26T14:15:25;95414.44;;;13.95;51.90
49044;BME280;34860;48.066;14.124;2023-03-26T14:18:27;95413.81;;;13.85;52.13
49044;BME280;34860;48.066;14.124;2023-03-26T14:21:34;95420.03;;;13.74;52.08
49044;BME280;34860;48.066;14.124;2023-03-26T14:24:45;95421.41;;;13.64;52.28
49044;BME280;34860;48.066;14.124;2023-03-26T14:27:50;95404.72;;;13.49;52.45
49044;BME280;34860;48.066;14.124;2023-03-26T14:30:58;95399.50;;;13.36;52.51
49044;BME280;34860;48.066;14.124;2023-03-26T14:34:10;95403.66;;;13.26;52.67
49044;BME280;34860;48.066;14.124;2023-03-26T14:37:22;95397.50;;;13.22;52.52
49044;BME280;34860;48.066;14.124;2023-03-26T14:40:30;95388.75;;;13.14;52.68
49044;BME280;34860;48.066;14.124;2023-03-26T14:43:51;95375.22;;;13.07;52.64
49044;BME280;34860;48.066;14.124;2023-03-26T14:46:53;95373.19;;;13.07;52.61
49044;BME280;34860;48.066;14.124;2023-03-26T14:50:20;95369.06;;;13.03;52.75
49044;BME280;34860;48.066;14.124;2023-03-26T14:53:24;95356.09;;;13.00;52.58
49044;BME280;34860;48.066;14.124;2023-03-26T14:56:37;95355.72;;;12.92;52.67
49044;BME280;34860;48.066;14.124;2023-03-26T15:03:38;95353.34;;;12.85;52.63
49044;BME280;34860;48.066;14.124;2023-03-26T15:07:07;95346.22;;;12.84;52.56
49044;BME280;34860;48.066;14.124;2023-03-26T15:10:14;95341.94;;;12.83;52.59
49044;BME280;34860;48.066;14.124;2023-03-26T15:13:19;95335.06;;;12.84;52.56
49044;BME280;34860;48.066;14.124;2023-03-26T15:16:49;95332.03;;;12.82;52.44
49044;BME280;34860;48.066;14.124;2023-03-26T15:20:04;95335.06;;;12.84;52.56
49044;BME280;34860;48.066;14.124;2023-03-26T15:23:45;95335.34;;;12.86;52.47
49044;BME280;34860;48.066;14.124;2023-03-26T15:27:08;95332.38;;;12.89;52.54
49044;BME280;34860;48.066;14.124;2023-03-26T15:30:21;95335.44;;;12.92;52.28
49044;BME280;34860;48.066;14.124;2023-03-26T15:33:28;95336.03;;;12.96;52.05
49044;BME280;34860;48.066;14.124;2023-03-26T15:36:53;95332.44;;;12.95;52.40
49044;BME280;34860;48.066;14.124;2023-03-26T15:40:21;95333.25;;;12.96;52.35
49044;BME280;34860;48.066;14.124;2023-03-26T15:43:14;95346.69;;;12.97;52.24
49044;BME280;34860;48.066;14.124;2023-03-26T15:46:24;95343.41;;;12.99;52.53
49044;BME280;34860;48.066;14.124;2023-03-26T15:49:13;95327.66;;;12.96;52.27
49044;BME280;34860;48.066;14.124;2023-03-26T15:52:17;95326.03;;;12.89;52.32
49044;BME280;34860;48.066;14.124;2023-03-26T15:55:24;95340.16;;;12.85;52.51
49044;BME280;34860;48.066;14.124;2023-03-26T15:58:21;95332.50;;;12.80;52.47